Time;durP1;ratioP1;P1;durP2;ratioP2;P2;SDS_P1;SDS_P2;PMS_P1;PMS_P2;Temp;Humidity;BMP_temperature;BMP_pressure;BME280_temperature;BME280_humidity;BME280_pressure;Samples;Min_cycle;Max_cycle;Signal;HPM_P1;HPM_P2
2021/12/28 00:00:10;;;;;;;11.23;8.60;;;10.10;89.80;;;;;;5002946;28;20069;-81
2021/12/28 00:02:35;;;;;;;12.30;8.93;;;10.10;90.00;;;;;;4995265;28;20026;-82
2021/12/28 00:05:01;;;;;;;9.50;7.22;;;10.00;90.00;;;;;;4998631;28;20539;-81
2021/12/28 00:07:27;;;;;;;8.68;6.38;;;10.00;90.10;;;;;;4996395;28;20038;-81
2021/12/28 00:09:52;;;;;;;11.10;7.95;;;10.00;90.10;;;;;;4990038;28;20077;-83
2021/12/28 00:12:18;;;;;;;13.20;9.23;;;10.00;90.10;;;;;;4996132;28;20093;-81
2021/12/28 00:15:01;;;;;;;11.75;8.20;;;10.00;90.10;;;;;;4999811;28;20034;-85
2021/12/28 00:20:11;;;;;;;14.00;9.32;;;10.00;90.20;;;;;;4997734;28;20048;-84
2021/12/28 00:22:36;;;;;;;12.77;9.43;;;10.00;90.20;;;;;;4987139;28;20034;-82
2021/12/28 00:25:04;;;;;;;17.55;10.45;;;10.00;90.10;;;;;;4995047;28;20057;-83
2021/12/28 00:27:29;;;;;;;10.55;7.80;;;10.00;90.20;;;;;;4992289;28;20057;-81
2021/12/28 00:29:55;;;;;;;11.15;8.18;;;10.00;90.20;;;;;;4995564;28;20022;-81
2021/12/28 00:32:21;;;;;;;11.60;9.30;;;10.00;90.20;;;;;;4993877;28;20035;-81
2021/12/28 00:34:46;;;;;;;10.88;8.40;;;10.00;90.20;;;;;;4991379;28;20058;-81
2021/12/28 00:37:12;;;;;;;10.80;7.15;;;10.00;90.20;;;;;;4992492;28;20038;-81
2021/12/28 00:39:37;;;;;;;13.57;8.57;;;10.10;90.30;;;;;;4994532;28;20569;-82
2021/12/28 00:42:04;;;;;;;12.35;8.15;;;10.00;90.20;;;;;;4989913;28;20474;-82
2021/12/28 00:44:29;;;;;;;14.35;8.82;;;10.00;90.20;;;;;;4996488;28;20417;-81
2021/12/28 00:46:55;;;;;;;10.50;6.35;;;10.00;90.30;;;;;;4989827;28;20018;-81
2021/12/28 00:49:20;;;;;;;15.55;9.18;;;10.00;90.30;;;;;;4993997;28;20026;-81
2021/12/28 00:51:47;;;;;;;9.40;6.88;;;10.00;90.30;;;;;;4992081;28;20456;-81
2021/12/28 00:54:13;;;;;;;8.80;6.20;;;10.00;90.40;;;;;;4992998;28;20493;-81
2021/12/28 00:56:38;;;;;;;14.20;7.18;;;10.10;90.40;;;;;;5005879;28;20041;-82
2021/12/28 00:59:04;;;;;;;12.13;7.13;;;10.10;90.30;;;;;;4991609;28;20014;-80
2021/12/28 01:01:29;;;;;;;13.75;7.60;;;10.10;90.30;;;;;;4991478;28;20033;-81
2021/12/28 01:03:55;;;;;;;11.30;7.22;;;10.10;90.20;;;;;;4989796;28;20142;-80
2021/12/28 01:06:20;;;;;;;9.57;6.18;;;10.00;90.20;;;;;;4989046;28;20034;-80
2021/12/28 01:08:46;;;;;;;10.98;6.80;;;10.10;90.30;;;;;;4995723;28;20030;-81
2021/12/28 01:11:11;;;;;;;15.32;7.88;;;10.10;90.20;;;;;;4992884;28;20030;-81
2021/12/28 01:13:37;;;;;;;14.02;7.15;;;10.00;90.20;;;;;;4985524;28;20414;-78
2021/12/28 01:16:03;;;;;;;11.93;6.75;;;10.00;90.20;;;;;;4989639;28;20023;-79
2021/12/28 01:18:28;;;;;;;11.25;6.20;;;10.00;90.30;;;;;;4993787;28;20500;-78
2021/12/28 01:20:55;;;;;;;13.88;7.53;;;10.00;90.30;;;;;;4996553;28;20032;-82
2021/12/28 01:23:21;;;;;;;11.70;5.85;;;10.00;90.30;;;;;;4990656;28;20038;-81
2021/12/28 01:25:46;;;;;;;12.27;6.80;;;10.10;90.30;;;;;;4995712;28;20093;-81
2021/12/28 01:28:12;;;;;;;9.55;5.70;;;10.00;90.20;;;;;;5000882;28;20034;-82
2021/12/28 01:30:41;;;;;;;11.63;5.82;;;10.00;90.20;;;;;;4993545;28;20023;-82
2021/12/28 01:33:08;;;;;;;9.63;5.40;;;10.00;90.10;;;;;;4990057;28;20570;-82
2021/12/28 01:35:35;;;;;;;9.75;4.93;;;10.00;90.20;;;;;;4990446;28;20066;-82
2021/12/28 01:38:01;;;;;;;10.93;5.03;;;10.00;90.20;;;;;;4993850;28;20412;-81
2021/12/28 01:40:30;;;;;;;13.50;6.55;;;10.00;90.10;;;;;;5002053;28;20105;-83
2021/12/28 01:43:04;;;;;;;10.75;5.68;;;9.90;90.00;;;;;;4994512;28;20034;-85
2021/12/28 01:45:33;;;;;;;9.80;4.85;;;9.90;90.10;;;;;;4989986;28;20014;-84
2021/12/28 01:47:59;;;;;;;11.15;5.28;;;10.00;90.20;;;;;;4994435;28;20034;-84
2021/12/28 01:50:25;;;;;;;12.30;5.35;;;9.90;90.10;;;;;;4991059;28;20084;-82
2021/12/28 01:52:51;;;;;;;8.80;4.40;;;9.90;90.00;;;;;;4990499;28;20025;-83
2021/12/28 01:55:17;;;;;;;13.93;5.90;;;9.90;90.10;;;;;;4998179;28;20018;-81
2021/12/28 01:57:44;;;;;;;14.18;5.72;;;9.90;90.10;;;;;;4999619;28;20038;-81
2021/12/28 02:00:11;;;;;;;12.05;6.43;;;9.90;90.10;;;;;;4989861;28;20041;-82
2021/12/28 02:02:37;;;;;;;11.63;5.63;;;9.90;90.10;;;;;;4994471;28;20096;-82
2021/12/28 02:05:03;;;;;;;9.82;4.82;;;9.90;90.10;;;;;;4994650;28;20026;-82
2021/12/28 02:07:29;;;;;;;11.07;5.35;;;9.80;90.10;;;;;;4995039;28;20041;-82
2021/12/28 02:09:55;;;;;;;14.93;6.03;;;9.80;90.10;;;;;;4993465;28;20034;-81
2021/12/28 02:12:21;;;;;;;13.32;5.85;;;9.80;90.10;;;;;;4988816;28;20493;-81
2021/12/28 02:14:47;;;;;;;11.13;5.38;;;9.80;90.10;;;;;;4986528;28;20397;-81
2021/12/28 02:17:14;;;;;;;8.85;4.63;;;9.70;90.10;;;;;;4989303;28;20030;-81
2021/12/28 02:19:40;;;;;;;7.85;4.10;;;9.80;90.10;;;;;;4997543;28;20036;-79
2021/12/28 02:22:06;;;;;;;8.45;5.00;;;9.80;90.10;;;;;;4990577;28;20034;-80
2021/12/28 02:24:31;;;;;;;11.95;5.97;;;9.70;90.10;;;;;;4987425;28;20085;-80
2021/12/28 02:26:57;;;;;;;9.45;4.90;;;9.70;90.00;;;;;;4996418;28;20019;-82
2021/12/28 02:29:22;;;;;;;9.27;4.75;;;9.70;90.10;;;;;;4997229;28;20409;-83
2021/12/28 02:31:55;;;;;;;15.52;6.60;;;9.70;90.10;;;;;;4989510;28;20413;-83
2021/12/28 02:34:23;;;;;;;11.05;5.80;;;9.70;90.00;;;;;;4990143;28;20448;-83
2021/12/28 02:36:49;;;;;;;8.00;5.40;;;9.70;90.00;;;;;;4991806;28;20121;-82
2021/12/28 02:39:15;;;;;;;7.88;5.25;;;9.70;90.00;;;;;;4991774;28;20544;-82
2021/12/28 02:41:40;;;;;;;10.50;5.13;;;9.70;90.00;;;;;;4991610;28;20114;-81
2021/12/28 02:44:06;;;;;;;11.23;5.80;;;9.80;90.00;;;;;;5004113;28;20022;-79
2021/12/28 02:46:32;;;;;;;10.23;5.70;;;9.70;89.80;;;;;;4995623;28;20117;-78
2021/12/28 02:48:57;;;;;;;10.70;5.22;;;9.70;89.90;;;;;;5001590;28;20092;-78
2021/12/28 02:51:23;;;;;;;9.23;5.47;;;9.70;89.80;;;;;;4998577;28;20030;-78
2021/12/28 02:53:49;;;;;;;10.65;5.18;;;9.70;89.80;;;;;;5003446;28;20034;-78
2021/12/28 02:56:16;;;;;;;8.95;5.40;;;9.70;89.70;;;;;;4994577;28;20054;-79
2021/12/28 02:58:45;;;;;;;10.68;5.78;;;9.70;89.60;;;;;;4997256;28;20061;-79
2021/12/28 03:01:20;;;;;;;11.20;7.00;;;9.70;89.60;;;;;;4998529;28;20022;-79
2021/12/28 03:03:49;;;;;;;14.90;7.15;;;9.50;89.40;;;;;;5003344;28;20366;-79
2021/12/28 03:06:17;;;;;;;7.95;5.25;;;9.50;89.40;;;;;;5000906;28;20026;-78
2021/12/28 03:08:48;;;;;;;11.02;5.88;;;9.50;89.50;;;;;;4994751;28;20038;-78
2021/12/28 03:11:15;;;;;;;11.32;6.65;;;9.50;89.60;;;;;;4992262;28;20046;-79
2021/12/28 03:13:48;;;;;;;10.32;5.68;;;9.40;89.30;;;;;;4996057;28;20061;-79
2021/12/28 03:16:14;;;;;;;9.93;5.60;;;9.40;89.50;;;;;;4990385;28;20031;-79
2021/12/28 03:18:40;;;;;;;10.80;6.00;;;9.50;89.60;;;;;;5002181;28;20027;-78
2021/12/28 03:21:08;;;;;;;10.35;5.63;;;9.50;89.30;;;;;;4995958;28;20061;-79
2021/12/28 03:23:34;;;;;;;14.50;8.77;;;9.50;89.30;;;;;;5000675;28;20482;-78
2021/12/28 03:26:00;;;;;;;12.25;7.28;;;9.40;89.10;;;;;;4995137;28;20026;-78
2021/12/28 03:28:29;;;;;;;11.35;6.57;;;9.40;89.10;;;;;;4989410;28;20469;-78
2021/12/28 03:30:57;;;;;;;9.80;5.57;;;9.40;89.10;;;;;;4988819;28;20034;-79
2021/12/28 03:33:25;;;;;;;10.00;6.00;;;9.40;89.20;;;;;;4991183;28;20034;-78
2021/12/28 03:35:51;;;;;;;8.85;4.80;;;9.30;89.10;;;;;;4993919;28;20026;-79
2021/12/28 03:38:17;;;;;;;11.43;5.50;;;9.40;89.20;;;;;;4993892;28;20523;-81
2021/12/28 03:40:44;;;;;;;10.48;5.45;;;9.40;89.20;;;;;;4992097;28;20029;-81
2021/12/28 03:43:10;;;;;;;12.73;7.50;;;9.30;89.10;;;;;;4996239;28;20042;-79
2021/12/28 03:45:35;;;;;;;10.52;5.85;;;9.20;89.00;;;;;;4989983;28;20033;-81
2021/12/28 03:48:01;;;;;;;11.90;6.55;;;9.30;89.20;;;;;;4993286;28;20072;-80
2021/12/28 03:50:27;;;;;;;9.80;5.43;;;9.20;88.90;;;;;;4995073;28;20121;-81
2021/12/28 03:52:54;;;;;;;8.45;5.15;;;9.20;89.20;;;;;;5001326;28;20113;-81
2021/12/28 03:55:21;;;;;;;12.65;5.82;;;9.30;89.30;;;;;;4995986;28;20022;-81
2021/12/28 03:57:47;;;;;;;9.32;5.32;;;9.30;89.00;;;;;;4994985;28;20516;-80
2021/12/28 04:00:15;;;;;;;9.35;5.88;;;9.30;89.00;;;;;;4990600;28;20026;-82
2021/12/28 04:02:40;;;;;;;9.45;6.05;;;9.30;89.00;;;;;;4996337;28;20034;-79
2021/12/28 04:05:07;;;;;;;11.30;5.97;;;9.30;88.80;;;;;;5000006;28;20096;-80
2021/12/28 04:07:33;;;;;;;10.20;5.43;;;9.30;88.70;;;;;;4996299;28;20038;-80
2021/12/28 04:10:02;;;;;;;10.18;5.07;;;9.30;88.70;;;;;;4992054;28;20034;-84
2021/12/28 04:12:29;;;;;;;7.18;4.50;;;9.30;88.70;;;;;;4992621;28;20375;-83
2021/12/28 04:14:55;;;;;;;8.63;4.40;;;9.20;88.70;;;;;;4990040;28;20488;-83
2021/12/28 04:17:21;;;;;;;9.85;5.93;;;9.20;88.80;;;;;;4997011;28;20022;-83
2021/12/28 04:19:47;;;;;;;9.02;5.80;;;9.30;88.80;;;;;;4989924;28;20061;-78
2021/12/28 04:22:13;;;;;;;8.85;4.60;;;9.30;88.70;;;;;;4996389;28;20034;-79
2021/12/28 04:24:38;;;;;;;10.57;6.00;;;9.30;88.70;;;;;;4993815;28;20445;-81
2021/12/28 04:27:04;;;;;;;10.65;5.72;;;9.20;88.50;;;;;;4994736;28;20026;-79
2021/12/28 04:29:30;;;;;;;9.30;5.78;;;9.20;88.50;;;;;;4998771;28;20096;-80
2021/12/28 04:31:55;;;;;;;8.48;5.75;;;9.10;88.50;;;;;;4994970;28;20020;-78
2021/12/28 04:34:21;;;;;;;9.95;6.00;;;9.00;88.40;;;;;;5002232;28;20026;-79
2021/12/28 04:36:47;;;;;;;9.70;5.50;;;9.10;88.80;;;;;;4991067;28;20401;-80
2021/12/28 04:39:13;;;;;;;12.23;5.50;;;9.10;88.80;;;;;;4987540;28;20038;-79
2021/12/28 04:41:39;;;;;;;7.75;4.88;;;9.10;88.70;;;;;;4991903;28;20032;-79
2021/12/28 04:44:05;;;;;;;8.80;4.60;;;9.10;88.80;;;;;;4992643;28;20030;-78
2021/12/28 04:46:31;;;;;;;7.93;3.90;;;9.10;88.80;;;;;;4993883;28;20026;-78
2021/12/28 04:48:57;;;;;;;10.75;5.15;;;9.10;88.80;;;;;;4991770;28;20061;-78
2021/12/28 04:51:23;;;;;;;11.80;5.78;;;9.10;88.80;;;;;;4992008;28;20599;-78
2021/12/28 04:53:50;;;;;;;10.13;4.70;;;9.10;88.60;;;;;;4992290;28;20027;-80
2021/12/28 04:56:15;;;;;;;7.40;4.38;;;9.10;88.80;;;;;;4989133;28;20026;-80
2021/12/28 04:58:41;;;;;;;10.75;5.35;;;9.20;88.70;;;;;;4997784;28;20037;-80
2021/12/28 05:01:07;;;;;;;9.07;5.38;;;9.20;88.60;;;;;;4994729;28;20558;-81
2021/12/28 05:03:32;;;;;;;8.00;5.05;;;9.20;88.70;;;;;;4998366;28;20041;-80
2021/12/28 05:05:58;;;;;;;9.20;4.40;;;9.30;88.60;;;;;;4996148;28;20026;-80
2021/12/28 05:08:23;;;;;;;8.45;4.88;;;9.30;88.60;;;;;;5000114;28;20041;-77
2021/12/28 05:10:51;;;;;;;11.95;5.40;;;9.20;88.40;;;;;;4988985;28;20121;-79
2021/12/28 05:13:17;;;;;;;7.75;4.47;;;9.20;88.50;;;;;;4989264;28;20033;-78
2021/12/28 05:15:45;;;;;;;10.23;4.75;;;9.20;88.60;;;;;;4988337;28;20533;-79
2021/12/28 05:18:12;;;;;;;8.35;4.43;;;9.30;88.80;;;;;;4997096;28;20104;-79
2021/12/28 05:20:38;;;;;;;7.90;3.88;;;9.30;88.70;;;;;;4997623;28;20026;-78
2021/12/28 05:23:03;;;;;;;10.20;4.35;;;9.40;88.70;;;;;;4991903;28;20095;-78
2021/12/28 05:25:30;;;;;;;8.43;4.22;;;9.40;88.60;;;;;;4993535;28;20061;-79
2021/12/28 05:27:56;;;;;;;7.88;4.00;;;9.50;88.50;;;;;;4989471;28;20034;-79
2021/12/28 05:30:21;;;;;;;10.27;4.88;;;9.60;88.40;;;;;;4991034;28;20189;-79
2021/12/28 05:32:47;;;;;;;8.75;4.78;;;9.50;88.10;;;;;;4988340;28;20441;-79
2021/12/28 05:35:13;;;;;;;8.73;4.32;;;9.60;88.10;;;;;;4989528;28;20114;-78
2021/12/28 05:37:39;;;;;;;8.25;4.40;;;9.60;88.10;;;;;;4989632;28;20057;-80
2021/12/28 05:40:07;;;;;;;13.20;5.93;;;9.50;88.00;;;;;;4992963;28;20434;-80
2021/12/28 05:42:33;;;;;;;6.72;3.70;;;9.50;88.10;;;;;;4997464;28;20061;-80
2021/12/28 05:45:00;;;;;;;6.63;3.45;;;9.50;88.90;;;;;;4988269;28;20015;-80
2021/12/28 05:47:25;;;;;;;8.07;3.40;;;9.60;88.20;;;;;;4990256;28;20034;-80
2021/12/28 05:49:51;;;;;;;8.50;4.25;;;9.60;88.20;;;;;;4990699;28;20026;-80
2021/12/28 05:52:17;;;;;;;8.77;4.40;;;9.60;88.20;;;;;;4995311;28;20031;-81
2021/12/28 05:54:42;;;;;;;12.27;3.90;;;9.60;88.20;;;;;;4987643;28;20030;-82
2021/12/28 05:57:09;;;;;;;6.95;3.50;;;9.70;88.30;;;;;;4989603;28;20470;-81
2021/12/28 05:59:35;;;;;;;8.38;4.03;;;9.70;88.20;;;;;;4991201;28;20027;-81
2021/12/28 06:02:01;;;;;;;8.30;3.53;;;9.70;88.20;;;;;;4995363;28;20029;-81
2021/12/28 06:04:26;;;;;;;9.40;3.78;;;9.70;88.10;;;;;;4995061;28;20030;-81
2021/12/28 06:06:52;;;;;;;9.68;3.70;;;9.70;88.20;;;;;;4989653;28;20022;-79
2021/12/28 06:09:18;;;;;;;9.93;3.97;;;9.70;88.20;;;;;;4989030;28;20062;-78
2021/12/28 06:11:43;;;;;;;12.02;5.45;;;9.80;88.10;;;;;;4993213;28;20034;-76
2021/12/28 06:14:09;;;;;;;12.75;4.70;;;9.80;88.00;;;;;;4994232;28;20030;-77
2021/12/28 06:16:35;;;;;;;9.57;3.60;;;9.70;87.90;;;;;;4989530;28;20034;-83
2021/12/28 06:19:02;;;;;;;8.30;3.75;;;9.60;88.10;;;;;;4995994;28;20022;-82
2021/12/28 06:21:31;;;;;;;11.68;3.80;;;9.60;88.10;;;;;;4990084;28;20669;-83
2021/12/28 06:23:59;;;;;;;9.40;3.60;;;9.50;88.20;;;;;;4990640;28;20589;-78
2021/12/28 06:26:25;;;;;;;12.80;4.00;;;9.50;88.30;;;;;;4982589;28;20117;-81
2021/12/28 06:28:51;;;;;;;9.80;2.88;;;9.40;88.50;;;;;;4987565;28;20382;-80
2021/12/28 06:31:16;;;;;;;9.20;3.53;;;9.40;88.60;;;;;;4982693;28;20058;-81
2021/12/28 06:33:42;;;;;;;9.48;3.53;;;9.30;88.60;;;;;;4985528;28;20061;-82
2021/12/28 06:36:07;;;;;;;12.82;4.03;;;9.30;88.80;;;;;;4978835;28;20057;-81
2021/12/28 06:38:33;;;;;;;10.98;3.53;;;9.30;89.00;;;;;;4985939;28;20489;-86
2021/12/28 06:40:58;;;;;;;15.60;4.10;;;9.30;89.10;;;;;;4989925;28;20117;-83
2021/12/28 06:43:24;;;;;;;7.35;2.60;;;9.30;89.20;;;;;;4991871;28;20038;-83
2021/12/28 06:45:51;;;;;;;9.00;3.88;;;9.30;89.20;;;;;;4990384;28;20038;-82
2021/12/28 06:48:16;;;;;;;11.68;4.40;;;9.30;89.20;;;;;;4987715;28;20409;-82
2021/12/28 06:50:42;;;;;;;8.77;3.60;;;9.20;89.40;;;;;;4987365;28;20034;-82
2021/12/28 06:53:08;;;;;;;11.00;4.10;;;9.20;89.60;;;;;;4992142;28;20109;-82
2021/12/28 06:55:33;;;;;;;12.95;4.18;;;9.20;89.90;;;;;;4986623;28;20030;-82
2021/12/28 06:57:59;;;;;;;11.48;4.20;;;9.20;90.00;;;;;;4984804;28;20635;-83
2021/12/28 07:00:25;;;;;;;7.82;3.50;;;9.20;90.10;;;;;;4986594;28;20022;-82
2021/12/28 07:02:50;;;;;;;12.95;4.10;;;9.20;90.20;;;;;;4997411;28;20429;-83
2021/12/28 07:05:16;;;;;;;11.07;4.18;;;9.20;90.20;;;;;;4993654;28;20959;-85
2021/12/28 07:07:41;;;;;;;8.90;3.42;;;9.20;90.30;;;;;;4995994;28;20438;-85
2021/12/28 07:10:08;;;;;;;11.07;4.07;;;9.20;90.40;;;;;;4993461;28;20026;-83
2021/12/28 07:12:34;;;;;;;9.70;3.53;;;9.20;90.40;;;;;;4989147;28;20601;-84
2021/12/28 07:15:00;;;;;;;9.55;3.60;;;9.20;90.50;;;;;;4984422;28;20098;-86
2021/12/28 07:17:28;;;;;;;9.27;3.17;;;9.20;90.50;;;;;;4993526;28;20034;-84
2021/12/28 07:19:54;;;;;;;10.43;3.22;;;9.20;90.60;;;;;;4978696;28;20765;-85
2021/12/28 07:22:20;;;;;;;9.82;3.40;;;9.20;90.50;;;;;;4987454;28;20034;-85
2021/12/28 07:24:45;;;;;;;10.20;3.70;;;9.30;90.50;;;;;;4985190;28;20113;-86
2021/12/28 07:27:11;;;;;;;11.27;3.70;;;9.30;90.60;;;;;;4990556;28;20042;-85
2021/12/28 07:29:37;;;;;;;11.30;3.47;;;9.30;90.60;;;;;;4990151;28;20029;-84
2021/12/28 07:32:04;;;;;;;7.88;2.90;;;9.30;90.70;;;;;;4988366;28;20486;-85
2021/12/28 07:34:31;;;;;;;10.00;3.50;;;9.30;90.60;;;;;;4984686;28;20124;-85
2021/12/28 07:36:56;;;;;;;12.38;3.85;;;9.30;90.70;;;;;;4992017;28;20026;-85
2021/12/28 07:39:22;;;;;;;9.20;3.22;;;9.30;90.70;;;;;;4989748;28;20161;-86
2021/12/28 07:41:47;;;;;;;10.52;3.30;;;9.40;90.80;;;;;;4992263;28;20023;-85
2021/12/28 07:44:13;;;;;;;7.18;2.67;;;9.40;90.70;;;;;;4990622;28;20038;-85
2021/12/28 07:46:38;;;;;;;6.38;2.40;;;9.40;90.70;;;;;;4988255;28;20025;-87
2021/12/28 07:49:04;;;;;;;8.48;3.28;;;9.50;90.70;;;;;;4990970;28;20017;-84
2021/12/28 07:51:30;;;;;;;9.88;2.78;;;9.50;90.70;;;;;;4989335;28;20023;-85
2021/12/28 07:53:56;;;;;;;7.88;3.22;;;9.50;90.70;;;;;;4993411;28;20496;-86
2021/12/28 07:56:21;;;;;;;8.15;2.60;;;9.50;90.70;;;;;;4987978;28;20034;-84
2021/12/28 07:58:47;;;;;;;11.77;3.75;;;9.50;90.70;;;;;;4990559;28;20032;-84
2021/12/28 08:01:13;;;;;;;10.85;3.00;;;9.40;90.80;;;;;;4981674;28;20026;-85
2021/12/28 08:03:38;;;;;;;5.80;2.35;;;9.50;90.90;;;;;;4986627;28;20382;-85
2021/12/28 08:06:04;;;;;;;13.05;3.50;;;9.50;90.90;;;;;;4990916;28;20026;-84
2021/12/28 08:08:30;;;;;;;6.85;2.60;;;9.50;90.90;;;;;;4982334;28;20554;-88
2021/12/28 08:11:05;;;;;;;7.45;3.00;;;9.50;90.90;;;;;;4996299;28;20050;-91
2021/12/28 08:13:31;;;;;;;8.35;2.85;;;9.50;91.00;;;;;;4985097;28;20018;-85
2021/12/28 08:15:56;;;;;;;9.18;3.38;;;9.50;91.00;;;;;;4992771;28;20029;-86
2021/12/28 08:18:22;;;;;;;8.20;3.00;;;9.50;91.00;;;;;;4994089;28;20018;-89
2021/12/28 08:20:48;;;;;;;9.05;3.22;;;9.50;91.00;;;;;;4995182;28;20034;-90
2021/12/28 08:23:15;;;;;;;7.85;2.80;;;9.60;91.00;;;;;;4991214;28;20393;-92
2021/12/28 08:25:41;;;;;;;7.00;2.58;;;9.60;91.10;;;;;;4998666;28;20033;-83
2021/12/28 08:28:06;;;;;;;7.60;3.03;;;9.60;91.10;;;;;;4991455;28;20022;-90
2021/12/28 08:30:38;;;;;;;7.90;2.92;;;9.60;91.10;;;;;;4990375;28;20034;-86
2021/12/28 08:33:06;;;;;;;9.85;2.97;;;9.60;91.10;;;;;;4987761;28;20424;-83
2021/12/28 08:35:32;;;;;;;9.23;3.33;;;9.60;91.10;;;;;;4987556;28;20026;-84
2021/12/28 08:37:58;;;;;;;11.98;4.03;;;9.60;91.20;;;;;;4991651;28;20033;-92
2021/12/28 08:40:24;;;;;;;9.65;3.08;;;9.60;91.20;;;;;;5004287;28;20033;-93
2021/12/28 08:42:49;;;;;;;8.55;2.70;;;9.60;91.20;;;;;;5001780;28;20034;-88
2021/12/28 08:45:17;;;;;;;4.63;2.33;;;9.60;91.30;;;;;;4995939;28;20374;-91
2021/12/28 08:47:46;;;;;;;8.85;3.08;;;9.60;91.30;;;;;;4987020;28;20046;-88
2021/12/28 08:50:12;;;;;;;8.82;3.33;;;9.70;91.30;;;;;;5003595;28;20038;-88
2021/12/28 08:52:38;;;;;;;7.60;2.90;;;9.70;91.30;;;;;;4992338;28;20023;-88
2021/12/28 08:55:05;;;;;;;10.88;3.45;;;9.70;91.20;;;;;;4989445;28;20374;-88
2021/12/28 08:57:31;;;;;;;8.68;2.80;;;9.70;91.20;;;;;;4988075;28;20034;-87
2021/12/28 08:59:57;;;;;;;8.73;3.33;;;9.70;91.30;;;;;;4984984;28;20433;-87
2021/12/28 09:02:22;;;;;;;8.10;2.90;;;9.70;91.40;;;;;;4992699;28;20840;-88
2021/12/28 09:04:48;;;;;;;9.98;3.20;;;9.70;91.40;;;;;;4996443;28;20026;-88
2021/12/28 09:07:16;;;;;;;6.82;2.85;;;9.70;91.40;;;;;;4992023;28;20121;-88
2021/12/28 09:09:43;;;;;;;5.22;2.45;;;9.70;91.40;;;;;;4994986;28;20042;-86
2021/12/28 09:12:09;;;;;;;7.47;2.85;;;9.70;91.40;;;;;;5002429;28;20050;-90
2021/12/28 09:14:37;;;;;;;9.52;3.78;;;9.80;91.40;;;;;;5009942;28;20155;-89
2021/12/28 09:17:04;;;;;;;4.65;2.47;;;9.70;91.50;;;;;;4992537;28;20441;-91
2021/12/28 09:19:31;;;;;;;6.32;2.92;;;9.80;91.50;;;;;;4998643;28;20049;-90
2021/12/28 09:21:57;;;;;;;7.45;2.80;;;9.80;91.50;;;;;;5003740;28;20086;-90
2021/12/28 09:24:22;;;;;;;6.43;2.75;;;9.80;91.50;;;;;;4993188;28;20066;-87
2021/12/28 09:26:48;;;;;;;5.18;2.80;;;9.90;91.40;;;;;;4992155;28;20029;-92
2021/12/28 09:29:14;;;;;;;3.97;2.30;;;9.90;91.40;;;;;;4992997;28;20057;-90
2021/12/28 09:31:39;;;;;;;6.55;2.63;;;9.90;91.30;;;;;;4983021;28;20018;-88
2021/12/28 09:34:05;;;;;;;7.53;2.97;;;9.90;91.30;;;;;;4991290;28;20030;-87
2021/12/28 09:36:31;;;;;;;6.68;2.72;;;9.90;91.40;;;;;;4984499;28;20028;-87
2021/12/28 09:38:56;;;;;;;3.40;2.25;;;10.00;91.30;;;;;;4991187;28;20034;-86
2021/12/28 09:41:22;;;;;;;5.95;2.78;;;10.00;91.30;;;;;;4985103;28;20030;-87
2021/12/28 09:43:48;;;;;;;4.35;2.50;;;10.10;91.30;;;;;;4987784;28;20042;-85
2021/12/28 09:46:13;;;;;;;4.25;2.42;;;10.00;91.30;;;;;;4990768;28;20031;-84
2021/12/28 09:48:39;;;;;;;4.63;2.30;;;10.10;91.30;;;;;;4991333;28;20117;-89
2021/12/28 09:51:06;;;;;;;4.88;2.47;;;10.10;91.30;;;;;;4992763;28;20026;-83
2021/12/28 09:53:32;;;;;;;4.97;2.63;;;10.10;91.30;;;;;;4993243;28;20030;-81
2021/12/28 09:55:57;;;;;;;4.43;2.55;;;10.10;91.30;;;;;;4987866;28;20084;-82
2021/12/28 09:58:23;;;;;;;2.83;2.20;;;10.10;91.40;;;;;;4990529;28;20058;-83
2021/12/28 10:00:49;;;;;;;4.25;2.78;;;10.10;91.40;;;;;;4992314;28;20409;-83
2021/12/28 10:03:15;;;;;;;2.90;2.28;;;10.10;91.30;;;;;;4988643;28;20549;-81
2021/12/28 10:05:41;;;;;;;3.08;2.22;;;10.10;91.30;;;;;;4993636;28;20027;-85
2021/12/28 10:08:09;;;;;;;3.45;2.17;;;10.10;91.40;;;;;;4985160;28;20051;-88
2021/12/28 10:10:38;;;;;;;2.40;2.00;;;10.10;91.40;;;;;;4983421;28;20026;-88
2021/12/28 10:13:08;;;;;;;2.33;1.95;;;10.20;91.50;;;;;;4994360;28;20058;-89
2021/12/28 10:15:36;;;;;;;3.13;2.60;;;10.20;91.50;;;;;;5003230;28;20076;-91
2021/12/28 10:18:06;;;;;;;3.55;2.35;;;10.20;91.40;;;;;;5000984;28;20116;-91
2021/12/28 10:20:39;;;;;;;2.70;1.95;;;10.30;91.40;;;;;;4995859;28;20027;-87
2021/12/28 10:23:10;;;;;;;3.75;2.90;;;10.30;91.40;;;;;;4992844;28;20102;-88
2021/12/28 10:26:05;;;;;;;3.30;2.28;;;10.40;91.40;;;;;;4988504;28;20027;-89
2021/12/28 10:28:36;;;;;;;3.55;2.60;;;10.30;91.30;;;;;;5000819;28;20043;-89
2021/12/28 10:31:17;;;;;;;3.42;2.45;;;10.30;91.40;;;;;;4984571;28;20106;-90
2021/12/28 10:33:42;;;;;;;3.75;2.60;;;10.30;91.40;;;;;;4985211;28;20106;-87
2021/12/28 10:36:14;;;;;;;5.68;4.20;;;10.40;91.40;;;;;;4990028;28;20422;-84
2021/12/28 10:38:45;;;;;;;3.63;2.80;;;10.40;91.40;;;;;;4992096;28;20049;-89
2021/12/28 10:41:14;;;;;;;5.32;3.22;;;10.40;91.40;;;;;;4997068;28;20031;-86
2021/12/28 10:43:45;;;;;;;5.30;3.63;;;10.50;91.40;;;;;;5000130;28;20392;-90
2021/12/28 10:46:20;;;;;;;2.78;2.50;;;10.50;91.40;;;;;;4988619;28;20026;-85
2021/12/28 10:48:58;;;;;;;3.63;2.80;;;10.50;91.40;;;;;;4989515;28;20026;-83
2021/12/28 10:51:28;;;;;;;3.08;2.78;;;10.50;91.40;;;;;;4990735;28;20377;-89
2021/12/28 10:56:51;;;;;;;3.10;2.80;;;10.60;91.40;;;;;;4996570;28;20409;-88
2021/12/28 10:59:21;;;;;;;3.83;3.42;;;10.60;91.40;;;;;;4996896;28;20092;-89
2021/12/28 11:01:46;;;;;;;3.88;3.03;;;10.60;91.50;;;;;;4991795;28;20046;-87
2021/12/28 11:04:14;;;;;;;2.50;2.30;;;10.60;91.50;;;;;;4991303;28;20513;-85
2021/12/28 11:06:42;;;;;;;2.30;2.10;;;10.70;91.80;;;;;;4997310;28;20061;-89
2021/12/28 11:09:15;;;;;;;3.13;2.83;;;10.70;91.40;;;;;;4997945;28;20033;-89
2021/12/28 11:11:41;;;;;;;;;;;10.70;91.40;;;;;;5004227;28;20077;-90
2021/12/28 11:14:10;;;;;;;3.17;2.67;;;10.70;91.40;;;;;;5012398;28;19957;-85
2021/12/28 11:16:36;;;;;;;4.25;3.80;;;10.70;91.40;;;;;;4993912;28;20068;-87
2021/12/28 11:19:05;;;;;;;5.10;3.63;;;10.70;91.50;;;;;;4996550;28;20086;-87
2021/12/28 11:21:38;;;;;;;2.45;2.25;;;10.70;91.50;;;;;;4995382;28;20045;-84
2021/12/28 11:24:13;;;;;;;2.88;2.50;;;10.80;91.50;;;;;;4991904;28;20601;-83
2021/12/28 11:26:48;;;;;;;3.65;2.90;;;10.70;91.40;;;;;;4996460;28;20030;-85
2021/12/28 11:29:18;;;;;;;3.83;3.30;;;10.70;91.50;;;;;;4992008;28;20026;-87
2021/12/28 11:31:47;;;;;;;3.25;2.85;;;10.80;91.50;;;;;;4996779;28;20086;-86
2021/12/28 11:34:24;;;;;;;3.90;3.50;;;10.80;91.50;;;;;;4992923;28;20036;-85
2021/12/28 11:36:57;;;;;;;3.50;3.20;;;10.80;91.50;;;;;;4993957;28;20041;-89
2021/12/28 11:39:27;;;;;;;4.22;3.83;;;10.80;91.70;;;;;;4995841;28;20043;-81
2021/12/28 11:41:56;;;;;;;3.83;3.30;;;10.80;91.40;;;;;;4993919;28;20455;-86
2021/12/28 11:44:23;;;;;;;5.57;3.25;;;10.80;91.50;;;;;;4990447;28;20478;-91
2021/12/28 11:46:51;;;;;;;3.70;3.35;;;10.80;91.50;;;;;;4994083;28;20097;-86
2021/12/28 11:49:18;;;;;;;2.92;2.72;;;10.90;91.40;;;;;;4992714;28;20509;-84
2021/12/28 11:51:46;;;;;;;5.50;3.63;;;10.90;91.40;;;;;;4990323;28;20397;-87
2021/12/28 11:54:14;;;;;;;3.10;2.80;;;10.90;91.70;;;;;;4996768;28;20042;-88
2021/12/28 11:56:44;;;;;;;3.30;3.00;;;10.90;91.40;;;;;;4993981;28;20014;-88
2021/12/28 11:59:21;;;;;;;4.00;2.75;;;10.90;91.40;;;;;;5000038;28;20034;-88
2021/12/28 12:02:00;;;;;;;4.00;3.10;;;10.90;91.40;;;;;;4994058;28;20031;-85
2021/12/28 12:04:35;;;;;;;6.57;4.28;;;11.00;91.40;;;;;;4988849;28;20026;-87
2021/12/28 12:07:01;;;;;;;3.97;3.30;;;11.00;91.30;;;;;;4988359;28;20631;-88
2021/12/28 12:09:27;;;;;;;2.78;2.47;;;11.00;91.30;;;;;;4991242;28;20104;-84
2021/12/28 12:12:11;;;;;;;3.90;3.38;;;11.00;91.30;;;;;;4994002;28;20033;-86
2021/12/28 12:14:58;;;;;;;3.92;3.03;;;11.00;91.30;;;;;;4996449;28;20026;-88
2021/12/28 12:17:44;;;;;;;5.00;3.17;;;11.00;91.40;;;;;;4981882;28;20097;-88
2021/12/28 12:20:16;;;;;;;2.83;2.53;;;11.00;91.40;;;;;;4988613;28;20394;-85
2021/12/28 12:22:57;;;;;;;4.13;3.35;;;11.00;91.70;;;;;;4995213;28;20042;-89
2021/12/28 12:25:57;;;;;;;5.32;4.20;;;11.00;91.40;;;;;;4990308;28;20038;-90
2021/12/28 12:28:46;;;;;;;3.55;2.75;;;10.90;91.50;;;;;;4982508;28;20409;-84
2021/12/28 12:31:37;;;;;;;5.97;3.53;;;11.00;91.60;;;;;;4988194;28;20029;-88
2021/12/28 12:34:24;;;;;;;4.05;2.90;;;10.90;91.60;;;;;;4997829;28;20041;-88
2021/12/28 12:36:51;;;;;;;3.13;2.83;;;11.00;91.60;;;;;;5000407;28;20034;-88
2021/12/28 12:39:20;;;;;;;3.60;2.70;;;11.00;91.50;;;;;;4997531;28;20029;-89
2021/12/28 12:41:49;;;;;;;3.00;2.60;;;11.00;91.60;;;;;;4998352;28;20031;-88
2021/12/28 12:44:18;;;;;;;3.50;3.10;;;11.00;91.60;;;;;;4997710;28;20034;-88
2021/12/28 12:46:47;;;;;;;2.28;2.08;;;11.00;91.60;;;;;;5006704;28;20400;-88
2021/12/28 12:49:20;;;;;;;1.77;1.67;;;10.90;91.60;;;;;;5005036;28;20021;-88
2021/12/28 12:51:55;;;;;;;3.88;1.67;;;10.90;91.60;;;;;;5002715;28;20109;-89
2021/12/28 12:54:29;;;;;;;5.05;1.98;;;10.90;91.50;;;;;;5005407;28;20030;-89
2021/12/28 12:56:55;;;;;;;4.53;1.98;;;10.90;91.50;;;;;;5004383;28;20069;-89